sensor_id;sensor_type;location;lat;lon;timestamp;temperature;humidity
77592;DHT22;66891;46.884;17.436;2023-08-06T00:00:42;17.69;94.97
77592;DHT22;66891;46.884;17.436;2023-08-06T00:03:10;17.62;94.60
77592;DHT22;66891;46.884;17.436;2023-08-06T00:05:41;17.68;93.92
77592;DHT22;66891;46.884;17.436;2023-08-06T00:08:09;17.72;93.95
77592;DHT22;66891;46.884;17.436;2023-08-06T00:10:39;17.66;93.49
77592;DHT22;66891;46.884;17.436;2023-08-06T00:13:09;17.75;93.91
77592;DHT22;66891;46.884;17.436;2023-08-06T00:15:36;17.73;93.81
77592;DHT22;66891;46.884;17.436;2023-08-06T00:18:04;17.85;93.66
77592;DHT22;66891;46.884;17.436;2023-08-06T00:20:32;17.71;93.69
77592;DHT22;66891;46.884;17.436;2023-08-06T00:22:59;17.58;94.39
77592;DHT22;66891;46.884;17.436;2023-08-06T00:25:27;17.80;93.43
77592;DHT22;66891;46.884;17.436;2023-08-06T00:27:54;17.83;93.40
77592;DHT22;66891;46.884;17.436;2023-08-06T00:30:25;17.75;93.40
77592;DHT22;66891;46.884;17.436;2023-08-06T00:32:52;17.85;93.15
77592;DHT22;66891;46.884;17.436;2023-08-06T00:35:20;17.97;93.39
77592;DHT22;66891;46.884;17.436;2023-08-06T00:37:48;17.86;93.90
77592;DHT22;66891;46.884;17.436;2023-08-06T00:40:15;17.83;94.11
77592;DHT22;66891;46.884;17.436;2023-08-06T00:42:43;17.85;93.56
77592;DHT22;66891;46.884;17.436;2023-08-06T00:45:12;17.82;94.15
77592;DHT22;66891;46.884;17.436;2023-08-06T00:47:41;17.89;92.99
77592;DHT22;66891;46.884;17.436;2023-08-06T00:50:09;17.87;93.65
77592;DHT22;66891;46.884;17.436;2023-08-06T00:52:37;17.85;94.20
77592;DHT22;66891;46.884;17.436;2023-08-06T00:55:05;17.92;93.63
77592;DHT22;66891;46.884;17.436;2023-08-06T00:57:33;17.89;94.13
77592;DHT22;66891;46.884;17.436;2023-08-06T01:00:01;17.80;94.23
77592;DHT22;66891;46.884;17.436;2023-08-06T01:02:29;17.76;94.45
77592;DHT22;66891;46.884;17.436;2023-08-06T01:04:58;17.72;94.98
77592;DHT22;66891;46.884;17.436;2023-08-06T01:07:35;17.79;94.66
77592;DHT22;66891;46.884;17.436;2023-08-06T01:10:19;17.66;95.83
77592;DHT22;66891;46.884;17.436;2023-08-06T01:12:57;17.63;95.80
77592;DHT22;66891;46.884;17.436;2023-08-06T01:15:30;17.44;96.67
77592;DHT22;66891;46.884;17.436;2023-08-06T01:17:59;17.56;96.21
77592;DHT22;66891;46.884;17.436;2023-08-06T01:20:31;17.55;96.16
77592;DHT22;66891;46.884;17.436;2023-08-06T01:22:58;17.52;95.98
77592;DHT22;66891;46.884;17.436;2023-08-06T01:25:31;17.38;96.87
77592;DHT22;66891;46.884;17.436;2023-08-06T01:28:05;17.42;96.04
77592;DHT22;66891;46.884;17.436;2023-08-06T01:30:36;17.42;95.78
77592;DHT22;66891;46.884;17.436;2023-08-06T01:33:10;17.46;94.53
77592;DHT22;66891;46.884;17.436;2023-08-06T01:35:42;17.48;94.08
77592;DHT22;66891;46.884;17.436;2023-08-06T01:38:09;17.49;94.16
77592;DHT22;66891;46.884;17.436;2023-08-06T01:40:37;17.32;94.89
77592;DHT22;66891;46.884;17.436;2023-08-06T01:43:04;17.45;94.29
77592;DHT22;66891;46.884;17.436;2023-08-06T01:45:32;17.45;94.49
77592;DHT22;66891;46.884;17.436;2023-08-06T01:47:59;17.36;95.23
77592;DHT22;66891;46.884;17.436;2023-08-06T01:50:27;17.38;95.37
77592;DHT22;66891;46.884;17.436;2023-08-06T01:52:55;17.39;95.14
77592;DHT22;66891;46.884;17.436;2023-08-06T01:55:23;17.45;94.63
77592;DHT22;66891;46.884;17.436;2023-08-06T01:57:50;17.48;94.31
77592;DHT22;66891;46.884;17.436;2023-08-06T02:00:18;17.35;94.54
77592;DHT22;66891;46.884;17.436;2023-08-06T02:02:46;17.38;95.13
77592;DHT22;66891;46.884;17.436;2023-08-06T02:05:14;17.28;95.57
77592;DHT22;66891;46.884;17.436;2023-08-06T02:07:42;17.24;95.95
77592;DHT22;66891;46.884;17.436;2023-08-06T02:10:11;17.31;95.71
77592;DHT22;66891;46.884;17.436;2023-08-06T02:12:39;17.34;95.75
77592;DHT22;66891;46.884;17.436;2023-08-06T02:15:08;17.21;96.20
77592;DHT22;66891;46.884;17.436;2023-08-06T02:17:35;17.18;96.46
77592;DHT22;66891;46.884;17.436;2023-08-06T02:20:03;17.23;96.46
77592;DHT22;66891;46.884;17.436;2023-08-06T02:22:31;17.23;97.30
77592;DHT22;66891;46.884;17.436;2023-08-06T02:24:58;17.34;97.04
77592;DHT22;66891;46.884;17.436;2023-08-06T02:27:26;17.20;96.82
77592;DHT22;66891;46.884;17.436;2023-08-06T02:29:54;17.23;97.41
77592;DHT22;66891;46.884;17.436;2023-08-06T02:32:21;17.25;96.95
77592;DHT22;66891;46.884;17.436;2023-08-06T02:34:48;17.18;97.29
77592;DHT22;66891;46.884;17.436;2023-08-06T02:37:15;17.24;96.74
77592;DHT22;66891;46.884;17.436;2023-08-06T02:39:43;17.25;96.36
77592;DHT22;66891;46.884;17.436;2023-08-06T02:42:10;17.18;95.56
77592;DHT22;66891;46.884;17.436;2023-08-06T02:44:39;17.13;96.35
77592;DHT22;66891;46.884;17.436;2023-08-06T02:47:06;17.07;97.12
77592;DHT22;66891;46.884;17.436;2023-08-06T02:49:33;17.15;96.43
77592;DHT22;66891;46.884;17.436;2023-08-06T02:52:00;17.17;96.05
77592;DHT22;66891;46.884;17.436;2023-08-06T02:54:28;17.13;96.34
77592;DHT22;66891;46.884;17.436;2023-08-06T02:56:55;17.06;96.42
77592;DHT22;66891;46.884;17.436;2023-08-06T02:59:22;17.11;96.68
77592;DHT22;66891;46.884;17.436;2023-08-06T03:01:51;17.23;95.94
77592;DHT22;66891;46.884;17.436;2023-08-06T03:04:18;17.20;95.93
77592;DHT22;66891;46.884;17.436;2023-08-06T03:06:46;16.93;96.16
77592;DHT22;66891;46.884;17.436;2023-08-06T03:09:13;17.02;95.55
77592;DHT22;66891;46.884;17.436;2023-08-06T03:11:40;16.96;96.05
77592;DHT22;66891;46.884;17.436;2023-08-06T03:14:08;16.99;96.43
77592;DHT22;66891;46.884;17.436;2023-08-06T03:16:35;16.94;95.90
77592;DHT22;66891;46.884;17.436;2023-08-06T03:19:04;16.80;97.36
77592;DHT22;66891;46.884;17.436;2023-08-06T03:21:31;16.90;96.00
77592;DHT22;66891;46.884;17.436;2023-08-06T03:23:59;16.83;95.96
77592;DHT22;66891;46.884;17.436;2023-08-06T03:26:26;16.88;96.01
77592;DHT22;66891;46.884;17.436;2023-08-06T03:28:54;16.76;96.19
77592;DHT22;66891;46.884;17.436;2023-08-06T03:31:21;16.80;96.27
77592;DHT22;66891;46.884;17.436;2023-08-06T03:33:48;16.81;96.39
77592;DHT22;66891;46.884;17.436;2023-08-06T03:36:17;16.83;96.24
77592;DHT22;66891;46.884;17.436;2023-08-06T03:38:44;16.83;96.06
77592;DHT22;66891;46.884;17.436;2023-08-06T03:41:11;16.83;96.17
77592;DHT22;66891;46.884;17.436;2023-08-06T03:43:39;16.79;96.37
77592;DHT22;66891;46.884;17.436;2023-08-06T03:46:06;16.65;97.44
77592;DHT22;66891;46.884;17.436;2023-08-06T03:48:33;16.90;96.67
77592;DHT22;66891;46.884;17.436;2023-08-06T03:51:01;16.80;97.05
77592;DHT22;66891;46.884;17.436;2023-08-06T03:53:30;16.63;97.15
77592;DHT22;66891;46.884;17.436;2023-08-06T03:55:57;16.93;96.38
77592;DHT22;66891;46.884;17.436;2023-08-06T03:58:27;16.90;97.10
77592;DHT22;66891;46.884;17.436;2023-08-06T04:00:58;16.94;96.43
77592;DHT22;66891;46.884;17.436;2023-08-06T04:03:25;16.96;96.13
77592;DHT22;66891;46.884;17.436;2023-08-06T04:05:54;16.91;96.92
77592;DHT22;66891;46.884;17.436;2023-08-06T04:08:21;16.86;96.49
77592;DHT22;66891;46.884;17.436;2023-08-06T04:10:51;16.94;97.36
77592;DHT22;66891;46.884;17.436;2023-08-06T04:13:19;16.93;96.70
77592;DHT22;66891;46.884;17.436;2023-08-06T04:15:47;16.97;96.33
77592;DHT22;66891;46.884;17.436;2023-08-06T04:18:14;17.03;97.26
77592;DHT22;66891;46.884;17.436;2023-08-06T04:20:45;16.87;96.92
77592;DHT22;66891;46.884;17.436;2023-08-06T04:23:14;17.04;96.44
77592;DHT22;66891;46.884;17.436;2023-08-06T04:25:41;16.93;96.45
77592;DHT22;66891;46.884;17.436;2023-08-06T04:28:10;16.97;96.11
77592;DHT22;66891;46.884;17.436;2023-08-06T04:30:37;16.81;96.56
77592;DHT22;66891;46.884;17.436;2023-08-06T04:33:05;16.87;96.21
77592;DHT22;66891;46.884;17.436;2023-08-06T04:35:32;16.81;96.49
77592;DHT22;66891;46.884;17.436;2023-08-06T04:37:59;16.86;96.95
77592;DHT22;66891;46.884;17.436;2023-08-06T04:40:27;16.93;96.59
77592;DHT22;66891;46.884;17.436;2023-08-06T04:42:54;17.00;96.60
77592;DHT22;66891;46.884;17.436;2023-08-06T04:45:23;17.03;96.62
77592;DHT22;66891;46.884;17.436;2023-08-06T04:47:51;17.07;96.10
77592;DHT22;66891;46.884;17.436;2023-08-06T04:50:19;17.13;96.84
77592;DHT22;66891;46.884;17.436;2023-08-06T04:52:46;17.15;96.15
77592;DHT22;66891;46.884;17.436;2023-08-06T04:55:14;17.14;95.97
77592;DHT22;66891;46.884;17.436;2023-08-06T04:57:41;17.24;95.46
77592;DHT22;66891;46.884;17.436;2023-08-06T05:00:09;17.28;95.67
77592;DHT22;66891;46.884;17.436;2023-08-06T05:02:37;17.51;95.67
77592;DHT22;66891;46.884;17.436;2023-08-06T05:05:06;17.41;95.43
77592;DHT22;66891;46.884;17.436;2023-08-06T05:07:33;17.44;95.08
77592;DHT22;66891;46.884;17.436;2023-08-06T05:10:00;17.49;95.62
77592;DHT22;66891;46.884;17.436;2023-08-06T05:12:28;17.56;95.24
77592;DHT22;66891;46.884;17.436;2023-08-06T05:14:55;17.45;95.37
77592;DHT22;66891;46.884;17.436;2023-08-06T05:17:22;17.55;95.11
77592;DHT22;66891;46.884;17.436;2023-08-06T05:19:52;17.52;94.83
77592;DHT22;66891;46.884;17.436;2023-08-06T05:22:19;17.58;94.67
77592;DHT22;66891;46.884;17.436;2023-08-06T05:24:47;17.66;93.67
77592;DHT22;66891;46.884;17.436;2023-08-06T05:27:14;17.58;92.63
77592;DHT22;66891;46.884;17.436;2023-08-06T05:29:42;17.59;92.95
77592;DHT22;66891;46.884;17.436;2023-08-06T05:32:10;17.62;92.59
77592;DHT22;66891;46.884;17.436;2023-08-06T05:34:37;17.59;93.46
77592;DHT22;66891;46.884;17.436;2023-08-06T05:37:06;17.69;93.26
77592;DHT22;66891;46.884;17.436;2023-08-06T05:39:33;17.73;92.15
77592;DHT22;66891;46.884;17.436;2023-08-06T05:42:01;17.85;92.13
77592;DHT22;66891;46.884;17.436;2023-08-06T05:44:28;17.82;91.47
77592;DHT22;66891;46.884;17.436;2023-08-06T05:46:55;17.87;90.38
77592;DHT22;66891;46.884;17.436;2023-08-06T05:49:22;17.76;90.60
77592;DHT22;66891;46.884;17.436;2023-08-06T05:51:50;17.73;91.03
77592;DHT22;66891;46.884;17.436;2023-08-06T05:54:22;17.72;91.70
77592;DHT22;66891;46.884;17.436;2023-08-06T05:56:49;17.78;91.08
77592;DHT22;66891;46.884;17.436;2023-08-06T05:59:16;17.82;90.91
77592;DHT22;66891;46.884;17.436;2023-08-06T06:01:44;17.85;90.85
77592;DHT22;66891;46.884;17.436;2023-08-06T06:04:11;17.80;90.40
77592;DHT22;66891;46.884;17.436;2023-08-06T06:06:38;17.90;89.61
77592;DHT22;66891;46.884;17.436;2023-08-06T06:09:05;17.99;89.81
77592;DHT22;66891;46.884;17.436;2023-08-06T06:11:34;17.89;87.86
77592;DHT22;66891;46.884;17.436;2023-08-06T06:14:01;17.93;88.35
77592;DHT22;66891;46.884;17.436;2023-08-06T06:16:29;17.96;88.48
77592;DHT22;66891;46.884;17.436;2023-08-06T06:18:56;18.04;88.52
77592;DHT22;66891;46.884;17.436;2023-08-06T06:21:24;18.00;88.96
77592;DHT22;66891;46.884;17.436;2023-08-06T06:23:52;18.06;88.79
77592;DHT22;66891;46.884;17.436;2023-08-06T06:26:19;18.10;88.77
77592;DHT22;66891;46.884;17.436;2023-08-06T06:28:48;18.09;88.14
77592;DHT22;66891;46.884;17.436;2023-08-06T06:31:15;18.13;88.28
77592;DHT22;66891;46.884;17.436;2023-08-06T06:33:43;18.16;89.01
77592;DHT22;66891;46.884;17.436;2023-08-06T06:36:10;18.20;88.16
77592;DHT22;66891;46.884;17.436;2023-08-06T06:38:38;18.28;87.64
77592;DHT22;66891;46.884;17.436;2023-08-06T06:41:06;18.21;87.78
77592;DHT22;66891;46.884;17.436;2023-08-06T06:43:34;18.28;86.99
77592;DHT22;66891;46.884;17.436;2023-08-06T06:46:02;18.34;87.42
77592;DHT22;66891;46.884;17.436;2023-08-06T06:48:32;18.30;87.74
77592;DHT22;66891;46.884;17.436;2023-08-06T06:50:59;18.43;87.25
77592;DHT22;66891;46.884;17.436;2023-08-06T06:53:28;18.45;87.32
77592;DHT22;66891;46.884;17.436;2023-08-06T06:55:56;18.62;86.96
77592;DHT22;66891;46.884;17.436;2023-08-06T06:58:28;18.64;87.09
77592;DHT22;66891;46.884;17.436;2023-08-06T07:00:55;18.84;86.30
77592;DHT22;66891;46.884;17.436;2023-08-06T07:03:24;18.95;86.69
77592;DHT22;66891;46.884;17.436;2023-08-06T07:05:57;19.03;87.25
77592;DHT22;66891;46.884;17.436;2023-08-06T07:08:26;18.95;87.52
77592;DHT22;66891;46.884;17.436;2023-08-06T07:11:00;18.81;87.67
77592;DHT22;66891;46.884;17.436;2023-08-06T07:13:28;18.93;88.43
77592;DHT22;66891;46.884;17.436;2023-08-06T07:15:56;19.03;86.20
77592;DHT22;66891;46.884;17.436;2023-08-06T07:18:25;18.92;86.38
77592;DHT22;66891;46.884;17.436;2023-08-06T07:20:53;19.07;86.89
77592;DHT22;66891;46.884;17.436;2023-08-06T07:23:25;19.10;86.68
77592;DHT22;66891;46.884;17.436;2023-08-06T07:25:53;19.30;87.26
77592;DHT22;66891;46.884;17.436;2023-08-06T07:28:20;19.31;87.13
77592;DHT22;66891;46.884;17.436;2023-08-06T07:30:47;19.27;87.53
77592;DHT22;66891;46.884;17.436;2023-08-06T07:33:15;19.17;87.46
77592;DHT22;66891;46.884;17.436;2023-08-06T07:35:52;19.33;87.07
77592;DHT22;66891;46.884;17.436;2023-08-06T07:38:53;19.17;87.51
77592;DHT22;66891;46.884;17.436;2023-08-06T07:41:25;19.30;86.56
77592;DHT22;66891;46.884;17.436;2023-08-06T07:43:53;19.27;86.00
77592;DHT22;66891;46.884;17.436;2023-08-06T07:46:21;19.37;83.70
77592;DHT22;66891;46.884;17.436;2023-08-06T07:48:53;19.51;84.67
77592;DHT22;66891;46.884;17.436;2023-08-06T07:51:22;19.44;83.18
77592;DHT22;66891;46.884;17.436;2023-08-06T07:53:50;19.38;83.35
77592;DHT22;66891;46.884;17.436;2023-08-06T07:56:19;19.43;83.70
77592;DHT22;66891;46.884;17.436;2023-08-06T07:58:47;19.55;84.73
77592;DHT22;66891;46.884;17.436;2023-08-06T08:01:15;19.62;81.90
77592;DHT22;66891;46.884;17.436;2023-08-06T08:03:42;19.62;81.61
77592;DHT22;66891;46.884;17.436;2023-08-06T08:06:11;19.74;80.69
77592;DHT22;66891;46.884;17.436;2023-08-06T08:08:40;19.72;81.18
77592;DHT22;66891;46.884;17.436;2023-08-06T08:11:08;19.78;81.53
77592;DHT22;66891;46.884;17.436;2023-08-06T08:13:45;19.92;81.81
77592;DHT22;66891;46.884;17.436;2023-08-06T08:16:13;19.91;80.89
77592;DHT22;66891;46.884;17.436;2023-08-06T08:18:41;19.99;80.21
77592;DHT22;66891;46.884;17.436;2023-08-06T08:21:09;20.05;79.02
77592;DHT22;66891;46.884;17.436;2023-08-06T08:23:39;20.16;78.28
77592;DHT22;66891;46.884;17.436;2023-08-06T08:26:09;20.18;78.09
77592;DHT22;66891;46.884;17.436;2023-08-06T08:28:36;20.12;79.36
77592;DHT22;66891;46.884;17.436;2023-08-06T08:31:03;20.26;78.76
77592;DHT22;66891;46.884;17.436;2023-08-06T08:33:35;20.30;78.44
77592;DHT22;66891;46.884;17.436;2023-08-06T08:36:02;20.64;78.67
77592;DHT22;66891;46.884;17.436;2023-08-06T08:38:30;20.46;79.02
77592;DHT22;66891;46.884;17.436;2023-08-06T08:40:59;20.73;78.99
77592;DHT22;66891;46.884;17.436;2023-08-06T08:43:27;20.58;77.88
77592;DHT22;66891;46.884;17.436;2023-08-06T08:45:54;20.67;76.72
77592;DHT22;66891;46.884;17.436;2023-08-06T08:48:26;20.65;78.25
77592;DHT22;66891;46.884;17.436;2023-08-06T08:50:56;20.71;77.38
77592;DHT22;66891;46.884;17.436;2023-08-06T08:53:23;20.74;77.52
77592;DHT22;66891;46.884;17.436;2023-08-06T08:55:53;20.81;76.80
77592;DHT22;66891;46.884;17.436;2023-08-06T08:58:24;20.88;75.20
77592;DHT22;66891;46.884;17.436;2023-08-06T09:00:51;20.87;76.00
77592;DHT22;66891;46.884;17.436;2023-08-06T09:03:19;20.88;76.66
77592;DHT22;66891;46.884;17.436;2023-08-06T09:05:49;21.09;75.84
77592;DHT22;66891;46.884;17.436;2023-08-06T09:08:22;21.05;76.83
77592;DHT22;66891;46.884;17.436;2023-08-06T09:10:50;21.06;76.47
77592;DHT22;66891;46.884;17.436;2023-08-06T09:13:19;20.90;75.55
77592;DHT22;66891;46.884;17.436;2023-08-06T09:15:49;21.02;75.74
77592;DHT22;66891;46.884;17.436;2023-08-06T09:18:25;21.28;75.00
77592;DHT22;66891;46.884;17.436;2023-08-06T09:20:55;21.11;75.77
77592;DHT22;66891;46.884;17.436;2023-08-06T09:23:28;21.22;75.57
77592;DHT22;66891;46.884;17.436;2023-08-06T09:25:56;21.33;75.06
77592;DHT22;66891;46.884;17.436;2023-08-06T09:28:24;21.60;75.26
77592;DHT22;66891;46.884;17.436;2023-08-06T09:30:53;21.47;76.22
77592;DHT22;66891;46.884;17.436;2023-08-06T09:33:23;21.66;76.29
77592;DHT22;66891;46.884;17.436;2023-08-06T09:35:51;21.78;76.99
77592;DHT22;66891;46.884;17.436;2023-08-06T09:38:18;21.84;75.81
77592;DHT22;66891;46.884;17.436;2023-08-06T09:40:47;21.32;77.69
77592;DHT22;66891;46.884;17.436;2023-08-06T09:43:14;21.76;75.57
77592;DHT22;66891;46.884;17.436;2023-08-06T09:45:41;21.93;73.97
77592;DHT22;66891;46.884;17.436;2023-08-06T09:48:13;21.64;74.91
77592;DHT22;66891;46.884;17.436;2023-08-06T09:50:43;21.53;75.34
77592;DHT22;66891;46.884;17.436;2023-08-06T09:53:12;21.64;75.85
77592;DHT22;66891;46.884;17.436;2023-08-06T09:55:40;21.15;76.37
77592;DHT22;66891;46.884;17.436;2023-08-06T09:58:08;21.40;78.12
77592;DHT22;66891;46.884;17.436;2023-08-06T10:00:39;21.11;77.66
77592;DHT22;66891;46.884;17.436;2023-08-06T10:03:08;20.80;78.08
77592;DHT22;66891;46.884;17.436;2023-08-06T10:05:38;21.06;79.14
77592;DHT22;66891;46.884;17.436;2023-08-06T10:08:07;21.06;78.49
77592;DHT22;66891;46.884;17.436;2023-08-06T10:10:34;21.08;76.55
77592;DHT22;66891;46.884;17.436;2023-08-06T10:13:03;21.05;78.26
77592;DHT22;66891;46.884;17.436;2023-08-06T10:15:33;20.80;79.21
77592;DHT22;66891;46.884;17.436;2023-08-06T10:18:04;20.96;78.58
77592;DHT22;66891;46.884;17.436;2023-08-06T10:20:33;20.84;79.55
77592;DHT22;66891;46.884;17.436;2023-08-06T10:23:03;20.85;78.87
77592;DHT22;66891;46.884;17.436;2023-08-06T10:25:32;20.67;78.82
77592;DHT22;66891;46.884;17.436;2023-08-06T10:28:07;20.85;79.70
77592;DHT22;66891;46.884;17.436;2023-08-06T10:30:46;20.90;77.04
77592;DHT22;66891;46.884;17.436;2023-08-06T10:33:14;21.26;77.88
77592;DHT22;66891;46.884;17.436;2023-08-06T10:35:44;21.22;77.09
77592;DHT22;66891;46.884;17.436;2023-08-06T10:38:15;21.46;77.31
77592;DHT22;66891;46.884;17.436;2023-08-06T10:40:49;21.02;77.03
77592;DHT22;66891;46.884;17.436;2023-08-06T10:43:27;20.75;79.22
77592;DHT22;66891;46.884;17.436;2023-08-06T10:45:56;20.81;79.80
77592;DHT22;66891;46.884;17.436;2023-08-06T10:48:31;20.64;80.29
77592;DHT22;66891;46.884;17.436;2023-08-06T10:51:01;20.23;80.65
77592;DHT22;66891;46.884;17.436;2023-08-06T10:53:30;20.32;80.53
77592;DHT22;66891;46.884;17.436;2023-08-06T10:56:00;20.25;81.32
77592;DHT22;66891;46.884;17.436;2023-08-06T10:58:31;20.10;80.74
77592;DHT22;66891;46.884;17.436;2023-08-06T11:00:59;20.09;80.39
77592;DHT22;66891;46.884;17.436;2023-08-06T11:03:27;19.99;81.73
77592;DHT22;66891;46.884;17.436;2023-08-06T11:05:55;19.86;81.98
77592;DHT22;66891;46.884;17.436;2023-08-06T11:08:25;19.70;82.13
77592;DHT22;66891;46.884;17.436;2023-08-06T11:10:54;19.71;82.85
77592;DHT22;66891;46.884;17.436;2023-08-06T11:13:29;19.57;83.62
77592;DHT22;66891;46.884;17.436;2023-08-06T11:15:58;19.35;84.10
77592;DHT22;66891;46.884;17.436;2023-08-06T11:18:26;19.24;84.63
77592;DHT22;66891;46.884;17.436;2023-08-06T11:20:53;19.30;85.62
77592;DHT22;66891;46.884;17.436;2023-08-06T11:23:20;19.41;85.47
77592;DHT22;66891;46.884;17.436;2023-08-06T11:25:48;19.44;84.89
77592;DHT22;66891;46.884;17.436;2023-08-06T11:28:19;19.53;85.13
77592;DHT22;66891;46.884;17.436;2023-08-06T11:30:48;19.57;84.06
77592;DHT22;66891;46.884;17.436;2023-08-06T11:33:20;19.70;83.91
77592;DHT22;66891;46.884;17.436;2023-08-06T11:35:48;19.79;83.85
77592;DHT22;66891;46.884;17.436;2023-08-06T11:38:16;19.68;83.86
77592;DHT22;66891;46.884;17.436;2023-08-06T11:40:44;19.71;84.58
77592;DHT22;66891;46.884;17.436;2023-08-06T11:43:12;19.53;85.31
77592;DHT22;66891;46.884;17.436;2023-08-06T11:45:41;19.28;87.32
77592;DHT22;66891;46.884;17.436;2023-08-06T11:48:08;18.98;88.85
77592;DHT22;66891;46.884;17.436;2023-08-06T11:50:37;18.73;89.25
77592;DHT22;66891;46.884;17.436;2023-08-06T11:53:06;18.40;90.59
77592;DHT22;66891;46.884;17.436;2023-08-06T11:55:35;18.54;89.48
77592;DHT22;66891;46.884;17.436;2023-08-06T11:58:03;18.47;90.41
77592;DHT22;66891;46.884;17.436;2023-08-06T12:00:33;18.36;91.56
77592;DHT22;66891;46.884;17.436;2023-08-06T12:03:04;18.24;90.22
77592;DHT22;66891;46.884;17.436;2023-08-06T12:05:32;17.99;93.18
77592;DHT22;66891;46.884;17.436;2023-08-06T12:08:05;17.87;91.59
77592;DHT22;66891;46.884;17.436;2023-08-06T12:10:32;17.65;91.74
77592;DHT22;66891;46.884;17.436;2023-08-06T12:13:00;17.17;97.57
77592;DHT22;66891;46.884;17.436;2023-08-06T12:15:27;16.91;97.70
77592;DHT22;66891;46.884;17.436;2023-08-06T12:17:58;16.88;98.17
77592;DHT22;66891;46.884;17.436;2023-08-06T12:20:27;17.06;96.56
77592;DHT22;66891;46.884;17.436;2023-08-06T12:22:55;17.06;96.49
77592;DHT22;66891;46.884;17.436;2023-08-06T12:25:22;17.20;94.99
77592;DHT22;66891;46.884;17.436;2023-08-06T12:27:51;17.34;94.94
77592;DHT22;66891;46.884;17.436;2023-08-06T12:30:19;17.17;94.67
77592;DHT22;66891;46.884;17.436;2023-08-06T12:32:46;17.21;94.82
77592;DHT22;66891;46.884;17.436;2023-08-06T12:35:13;17.10;96.23
77592;DHT22;66891;46.884;17.436;2023-08-06T12:37:42;16.51;99.99
77592;DHT22;66891;46.884;17.436;2023-08-06T12:40:11;16.45;99.99
77592;DHT22;66891;46.884;17.436;2023-08-06T12:42:58;16.24;99.99
77592;DHT22;66891;46.884;17.436;2023-08-06T12:45:26;16.41;99.99
77592;DHT22;66891;46.884;17.436;2023-08-06T12:47:53;16.21;99.99
77592;DHT22;66891;46.884;17.436;2023-08-06T12:50:21;16.29;99.99
77592;DHT22;66891;46.884;17.436;2023-08-06T12:52:49;16.51;99.99
77592;DHT22;66891;46.884;17.436;2023-08-06T12:55:17;16.60;99.99
77592;DHT22;66891;46.884;17.436;2023-08-06T12:57:44;16.73;99.99
77592;DHT22;66891;46.884;17.436;2023-08-06T13:00:24;16.56;99.99
77592;DHT22;66891;46.884;17.436;2023-08-06T13:02:51;16.83;99.99
77592;DHT22;66891;46.884;17.436;2023-08-06T13:05:19;17.02;99.99
77592;DHT22;66891;46.884;17.436;2023-08-06T13:07:47;17.15;99.49
77592;DHT22;66891;46.884;17.436;2023-08-06T13:10:16;17.17;98.78
77592;DHT22;66891;46.884;17.436;2023-08-06T13:12:43;17.20;98.31
77592;DHT22;66891;46.884;17.436;2023-08-06T13:15:10;17.51;96.85
77592;DHT22;66891;46.884;17.436;2023-08-06T13:17:38;17.66;94.18
77592;DHT22;66891;46.884;17.436;2023-08-06T13:20:06;17.87;96.66
77592;DHT22;66891;46.884;17.436;2023-08-06T13:22:34;18.20;95.02
77592;DHT22;66891;46.884;17.436;2023-08-06T13:25:01;18.06;95.00
77592;DHT22;66891;46.884;17.436;2023-08-06T13:27:30;18.16;91.00
77592;DHT22;66891;46.884;17.436;2023-08-06T13:29:58;18.11;93.03
77592;DHT22;66891;46.884;17.436;2023-08-06T13:32:25;18.20;93.14
77592;DHT22;66891;46.884;17.436;2023-08-06T13:34:53;18.40;93.31
77592;DHT22;66891;46.884;17.436;2023-08-06T13:37:20;18.55;92.26
77592;DHT22;66891;46.884;17.436;2023-08-06T13:39:47;18.85;91.34
77592;DHT22;66891;46.884;17.436;2023-08-06T13:42:14;19.06;90.25
77592;DHT22;66891;46.884;17.436;2023-08-06T13:44:43;19.07;88.75
77592;DHT22;66891;46.884;17.436;2023-08-06T13:47:10;19.09;88.85
77592;DHT22;66891;46.884;17.436;2023-08-06T13:49:38;19.22;90.27
77592;DHT22;66891;46.884;17.436;2023-08-06T13:52:05;19.26;89.74
77592;DHT22;66891;46.884;17.436;2023-08-06T13:54:47;19.16;90.34
77592;DHT22;66891;46.884;17.436;2023-08-06T13:57:15;19.47;89.62
77592;DHT22;66891;46.884;17.436;2023-08-06T13:59:46;19.44;89.36
77592;DHT22;66891;46.884;17.436;2023-08-06T14:02:13;19.50;87.62
77592;DHT22;66891;46.884;17.436;2023-08-06T14:04:41;19.22;86.68
77592;DHT22;66891;46.884;17.436;2023-08-06T14:07:08;19.38;87.06
77592;DHT22;66891;46.884;17.436;2023-08-06T14:09:35;19.57;86.32
77592;DHT22;66891;46.884;17.436;2023-08-06T14:12:03;19.54;86.14
77592;DHT22;66891;46.884;17.436;2023-08-06T14:14:30;19.46;87.49
77592;DHT22;66891;46.884;17.436;2023-08-06T14:16:59;19.43;87.93
77592;DHT22;66891;46.884;17.436;2023-08-06T14:19:27;19.47;87.24
77592;DHT22;66891;46.884;17.436;2023-08-06T14:21:55;19.68;88.03
77592;DHT22;66891;46.884;17.436;2023-08-06T14:24:23;19.55;87.03
77592;DHT22;66891;46.884;17.436;2023-08-06T14:26:50;19.68;86.54
77592;DHT22;66891;46.884;17.436;2023-08-06T14:29:19;19.57;85.95
77592;DHT22;66891;46.884;17.436;2023-08-06T14:31:46;19.65;86.50
77592;DHT22;66891;46.884;17.436;2023-08-06T14:34:15;19.72;85.60
77592;DHT22;66891;46.884;17.436;2023-08-06T14:36:42;19.79;86.24
77592;DHT22;66891;46.884;17.436;2023-08-06T14:39:10;19.85;85.65
77592;DHT22;66891;46.884;17.436;2023-08-06T14:41:37;20.04;85.08
77592;DHT22;66891;46.884;17.436;2023-08-06T14:44:04;19.98;86.69
77592;DHT22;66891;46.884;17.436;2023-08-06T14:46:32;20.33;85.46
77592;DHT22;66891;46.884;17.436;2023-08-06T14:48:59;20.10;84.03
77592;DHT22;66891;46.884;17.436;2023-08-06T14:51:28;20.19;84.14
77592;DHT22;66891;46.884;17.436;2023-08-06T14:53:55;19.96;84.76
77592;DHT22;66891;46.884;17.436;2023-08-06T14:56:22;20.20;84.08
77592;DHT22;66891;46.884;17.436;2023-08-06T14:58:50;20.36;84.67
77592;DHT22;66891;46.884;17.436;2023-08-06T15:01:17;20.29;83.06
77592;DHT22;66891;46.884;17.436;2023-08-06T15:03:45;20.10;84.99
77592;DHT22;66891;46.884;17.436;2023-08-06T15:06:12;20.25;83.47
77592;DHT22;66891;46.884;17.436;2023-08-06T15:08:41;20.30;85.00
77592;DHT22;66891;46.884;17.436;2023-08-06T15:11:12;20.40;84.48
77592;DHT22;66891;46.884;17.436;2023-08-06T15:13:40;20.22;83.25
77592;DHT22;66891;46.884;17.436;2023-08-06T15:16:07;20.27;83.93
77592;DHT22;66891;46.884;17.436;2023-08-06T15:18:34;20.48;81.83
77592;DHT22;66891;46.884;17.436;2023-08-06T15:21:02;20.44;82.24
77592;DHT22;66891;46.884;17.436;2023-08-06T15:23:29;20.51;84.05